Time;durP1;ratioP1;P1;durP2;ratioP2;P2;SDS_P1;SDS_P2;PMS_P1;PMS_P2;Temp;Humidity;BMP_temperature;BMP_pressure;BME280_temperature;BME280_humidity;BME280_pressure;Samples;Min_cycle;Max_cycle;Signal;HPM_P1;HPM_P2
2023/06/16 00:01:03;;;;;;;5.70;4.50;;;20.60;1.00;;;;;;5050724;28;20875;-85
2023/06/16 00:03:33;;;;;;;9.43;5.57;;;20.50;1.00;;;;;;5044074;28;20447;-83
2023/06/16 00:06:03;;;;;;;9.80;5.10;;;20.50;1.00;;;;;;5060234;28;20445;-85
2023/06/16 00:08:30;;;;;;;8.77;5.17;;;20.40;1.00;;;;;;5055732;28;20457;-83
2023/06/16 00:10:56;;;;;;;8.50;5.57;;;20.40;1.00;;;;;;5050711;28;20431;-84
2023/06/16 00:13:22;;;;;;;8.97;4.70;;;20.40;1.00;;;;;;5048996;28;20431;-85
2023/06/16 00:15:47;;;;;;;8.57;5.90;;;20.30;1.00;;;;;;5049287;28;20228;-85
2023/06/16 00:18:13;;;;;;;7.37;5.50;;;20.30;1.00;;;;;;5052778;28;20215;-83
2023/06/16 00:20:38;;;;;;;8.50;6.33;;;20.20;1.00;;;;;;5057723;28;20708;-84
2023/06/16 00:23:06;;;;;;;7.40;4.93;;;20.20;1.00;;;;;;5053982;28;20565;-83
2023/06/16 00:25:32;;;;;;;7.50;5.80;;;20.10;1.00;;;;;;5050807;28;20279;-83
2023/06/16 00:27:57;;;;;;;7.80;5.77;;;20.10;1.00;;;;;;5063311;28;20443;-84
2023/06/16 00:30:24;;;;;;;9.50;5.43;;;20.10;1.00;;;;;;5061741;28;20196;-85
2023/06/16 00:32:50;;;;;;;8.67;5.90;;;20.00;1.00;;;;;;5050284;28;20180;-83
2023/06/16 00:35:15;;;;;;;9.83;5.17;;;20.00;1.00;;;;;;5050113;28;20485;-84
2023/06/16 00:37:41;;;;;;;5.97;4.97;;;19.90;1.00;;;;;;5057190;28;20251;-86
2023/06/16 00:40:08;;;;;;;7.17;5.40;;;19.90;1.00;;;;;;5063350;28;20209;-84
2023/06/16 00:42:33;;;;;;;9.40;5.00;;;19.90;1.00;;;;;;5061710;28;20194;-85
2023/06/16 00:45:00;;;;;;;6.73;5.27;;;19.80;4.80;;;;;;5051464;28;20473;-85
2023/06/16 00:47:25;;;;;;;10.03;5.03;;;19.80;1.00;;;;;;5048800;28;20190;-82
2023/06/16 00:49:51;;;;;;;8.07;5.50;;;19.70;1.00;;;;;;5055959;28;20460;-85
2023/06/16 00:52:17;;;;;;;8.10;6.10;;;19.70;1.00;;;;;;5055871;28;20469;-84
2023/06/16 00:54:43;;;;;;;6.63;4.90;;;19.60;1.00;;;;;;5049566;28;20187;-86
2023/06/16 00:57:09;;;;;;;9.67;6.00;;;19.60;1.00;;;;;;5055065;28;20444;-83
2023/06/16 00:59:34;;;;;;;10.07;4.80;;;19.60;1.00;;;;;;5059549;28;20477;-83
2023/06/16 01:02:00;;;;;;;5.87;5.27;;;19.60;1.00;;;;;;5053451;28;20183;-83
2023/06/16 01:04:27;;;;;;;7.67;5.90;;;19.60;1.00;;;;;;5062742;28;20239;-83
2023/06/16 01:07:20;;;;;;;7.20;4.70;;;19.60;1.00;;;;;;5057916;28;20182;-84
2023/06/16 01:09:55;;;;;;;5.63;4.97;;;19.60;1.00;;;;;;5059902;28;20514;-83
2023/06/16 01:12:33;;;;;;;7.60;5.07;;;19.60;1.00;;;;;;5054773;28;20515;-84
2023/06/16 01:15:11;;;;;;;5.60;5.00;;;19.50;1.00;;;;;;5057145;28;20443;-83
2023/06/16 01:17:43;;;;;;;6.20;5.20;;;19.50;1.00;;;;;;5046694;28;20430;-84
2023/06/16 01:20:12;;;;;;;6.77;5.00;;;19.50;1.00;;;;;;5048172;28;20460;-84
2023/06/16 01:23:06;;;;;;;10.10;6.10;;;19.50;1.00;;;;;;5065454;28;20438;-82
2023/06/16 01:25:33;;;;;;;5.83;4.80;;;19.50;1.00;;;;;;5054798;28;20502;-83
2023/06/16 01:28:03;;;;;;;9.53;5.50;;;19.40;1.00;;;;;;5048162;28;20455;-84
2023/06/16 01:30:32;;;;;;;5.77;5.00;;;19.40;1.00;;;;;;5057149;28;20461;-84
2023/06/16 01:32:58;;;;;;;9.23;5.30;;;19.40;1.00;;;;;;5053209;28;20439;-83
2023/06/16 01:35:24;;;;;;;8.00;5.60;;;19.30;1.00;;;;;;5057049;28;20463;-85
2023/06/16 01:37:52;;;;;;;6.43;5.03;;;19.20;1.00;;;;;;5065643;28;20193;-83
2023/06/16 01:40:19;;;;;;;6.33;4.97;;;19.20;1.00;;;;;;5060319;28;20520;-84
2023/06/16 01:42:47;;;;;;;12.20;5.87;;;19.20;1.30;;;;;;5053567;28;20526;-86
2023/06/16 01:45:15;;;;;;;7.10;6.00;;;19.10;1.60;;;;;;5053833;28;20458;-84
2023/06/16 01:47:41;;;;;;;8.73;5.47;;;19.10;1.90;;;;;;5064598;28;20463;-84
2023/06/16 01:50:07;;;;;;;8.80;5.50;;;19.10;2.60;;;;;;5052799;28;20496;-85
2023/06/16 01:52:33;;;;;;;6.93;5.00;;;19.00;3.30;;;;;;5057726;28;20515;-83
2023/06/16 01:54:59;;;;;;;6.13;4.73;;;19.00;3.90;;;;;;5053837;28;20437;-84
2023/06/16 01:57:26;;;;;;;10.93;5.37;;;19.00;4.00;;;;;;5057524;28;20203;-84
2023/06/16 02:00:01;;;;;;;9.80;5.87;;;19.00;4.90;;;;;;5063316;28;20208;-86
2023/06/16 02:02:30;;;;;;;7.83;4.60;;;18.90;5.10;;;;;;5056936;28;21079;-85
2023/06/16 02:04:59;;;;;;;8.13;5.07;;;18.90;5.00;;;;;;5055721;28;20470;-83
2023/06/16 02:07:34;;;;;;;6.77;6.13;;;18.90;5.70;;;;;;5056408;28;20454;-84
2023/06/16 02:10:01;;;;;;;7.50;5.20;;;18.80;5.90;;;;;;5065339;28;20479;-84
2023/06/16 02:12:28;;;;;;;7.13;5.70;;;18.80;7.20;;;;;;5052786;28;20443;-84
2023/06/16 02:14:54;;;;;;;6.00;5.07;;;18.70;6.90;;;;;;5056758;28;20441;-83
2023/06/16 02:17:26;;;;;;;10.93;5.53;;;18.70;7.60;;;;;;5048039;28;20442;-84
2023/06/16 02:19:54;;;;;;;6.67;5.40;;;18.70;8.00;;;;;;5056578;28;20286;-84
2023/06/16 02:22:20;;;;;;;9.20;5.67;;;18.60;17.90;;;;;;5064641;28;20438;-86
2023/06/16 02:24:46;;;;;;;10.73;5.13;;;18.60;8.20;;;;;;5061539;28;20539;-84
2023/06/16 02:27:13;;;;;;;7.53;5.43;;;18.50;8.30;;;;;;5050384;28;20439;-85
2023/06/16 02:29:39;;;;;;;9.17;5.73;;;18.40;8.40;;;;;;5058111;28;20451;-83
2023/06/16 02:32:05;;;;;;;5.33;4.83;;;18.40;8.80;;;;;;5063144;28;20463;-86
2023/06/16 02:34:31;;;;;;;7.53;4.77;;;18.40;9.40;;;;;;5056876;28;20523;-83
2023/06/16 02:36:56;;;;;;;8.83;5.57;;;18.40;10.30;;;;;;5053292;28;20187;-84
2023/06/16 02:39:22;;;;;;;7.00;5.20;;;18.40;10.50;;;;;;5051612;28;20208;-84
2023/06/16 02:41:48;;;;;;;7.77;5.83;;;18.40;11.20;;;;;;5055896;28;20409;-85
2023/06/16 02:44:13;;;;;;;6.70;5.57;;;18.40;11.30;;;;;;5052259;28;20221;-82
2023/06/16 02:46:39;;;;;;;8.67;5.97;;;18.30;11.90;;;;;;5054106;28;20432;-85
2023/06/16 02:49:04;;;;;;;10.97;4.50;;;18.30;13.00;;;;;;5052672;28;20277;-85
2023/06/16 02:51:30;;;;;;;7.50;5.67;;;18.30;13.10;;;;;;5057240;28;20246;-84
2023/06/16 02:53:56;;;;;;;7.77;5.00;;;18.30;13.10;;;;;;5065963;28;20194;-84
2023/06/16 02:56:23;;;;;;;7.43;5.30;;;18.20;13.50;;;;;;5059600;28;20196;-82
2023/06/16 02:58:49;;;;;;;7.97;5.87;;;18.20;14.00;;;;;;5057859;28;20460;-85
2023/06/16 03:01:14;;;;;;;11.13;6.00;;;18.20;15.40;;;;;;5050301;28;20460;-83
2023/06/16 03:03:40;;;;;;;8.10;5.33;;;18.20;15.00;;;;;;5050639;28;20196;-84
2023/06/16 03:06:07;;;;;;;12.70;5.40;;;18.20;14.90;;;;;;5055574;28;20199;-84
2023/06/16 03:08:32;;;;;;;7.13;5.40;;;18.20;15.40;;;;;;5056382;28;20225;-84
2023/06/16 03:10:58;;;;;;;7.53;5.57;;;18.10;16.40;;;;;;5053058;28;20451;-84
2023/06/16 03:13:24;;;;;;;9.03;5.50;;;18.10;16.70;;;;;;5054653;28;20258;-85
2023/06/16 03:15:50;;;;;;;6.83;5.17;;;18.10;17.50;;;;;;5055914;28;20183;-83
2023/06/16 03:18:16;;;;;;;9.80;6.03;;;18.10;18.10;;;;;;5050512;28;20206;-86
2023/06/16 03:20:45;;;;;;;9.03;5.37;;;18.00;19.10;;;;;;5058609;28;20462;-84
2023/06/16 03:23:11;;;;;;;8.80;5.93;;;18.00;19.50;;;;;;5051392;28;20201;-85
2023/06/16 03:25:38;;;;;;;11.97;5.73;;;18.00;20.60;;;;;;5049067;28;20464;-83
2023/06/16 03:28:05;;;;;;;9.30;5.13;;;18.00;20.70;;;;;;5050145;28;20461;-84
2023/06/16 03:30:31;;;;;;;9.77;5.77;;;18.00;31.20;;;;;;5062624;28;20488;-83
2023/06/16 03:32:57;;;;;;;9.43;6.10;;;18.00;22.00;;;;;;5053442;28;20464;-85
2023/06/16 03:35:22;;;;;;;9.27;6.20;;;18.00;21.90;;;;;;5052251;28;20248;-85
2023/06/16 03:37:49;;;;;;;7.47;5.50;;;18.10;22.20;;;;;;5057367;28;20451;-81
2023/06/16 03:40:14;;;;;;;9.73;6.10;;;18.10;22.50;;;;;;5058584;28;20313;-83
2023/06/16 03:42:40;;;;;;;8.37;6.47;;;18.10;22.50;;;;;;5060837;28;20438;-84
2023/06/16 03:45:06;;;;;;;6.90;5.53;;;18.10;22.80;;;;;;5054740;28;20218;-85
2023/06/16 03:47:32;;;;;;;7.53;5.80;;;18.10;23.20;;;;;;5049679;28;20245;-84
2023/06/16 03:49:58;;;;;;;7.90;5.70;;;18.10;23.40;;;;;;5053349;28;20472;-84
2023/06/16 03:52:24;;;;;;;6.67;5.97;;;18.10;23.40;;;;;;5058476;28;20184;-85
2023/06/16 03:54:50;;;;;;;10.50;6.47;;;18.20;23.70;;;;;;5046492;28;20429;-81
2023/06/16 03:57:16;;;;;;;7.93;5.83;;;18.20;24.10;;;;;;5054813;28;20230;-84
2023/06/16 03:59:42;;;;;;;12.50;6.17;;;18.20;24.20;;;;;;5053750;28;20198;-84
2023/06/16 04:02:07;;;;;;;11.63;6.17;;;18.30;24.60;;;;;;5056731;28;20437;-83
2023/06/16 04:04:36;;;;;;;7.90;5.67;;;18.30;24.50;;;;;;5057293;28;20333;-84
2023/06/16 04:07:03;;;;;;;9.60;6.93;;;18.30;25.10;;;;;;5055045;28;20207;-84
2023/06/16 04:09:30;;;;;;;9.97;5.40;;;18.30;25.60;;;;;;5051771;28;20533;-84
2023/06/16 04:11:56;;;;;;;13.03;6.50;;;18.40;25.90;;;;;;5057073;28;20441;-86
2023/06/16 04:14:21;;;;;;;10.20;5.40;;;18.40;26.60;;;;;;5062357;28;20863;-84
2023/06/16 04:16:47;;;;;;;8.80;5.80;;;18.50;26.00;;;;;;5052964;28;20442;-84
2023/06/16 04:19:13;;;;;;;10.10;6.10;;;18.50;25.90;;;;;;5050950;28;20236;-85
2023/06/16 04:21:41;;;;;;;10.80;6.43;;;18.60;25.80;;;;;;5048637;28;20178;-83
2023/06/16 04:24:07;;;;;;;7.27;6.17;;;18.70;26.20;;;;;;5050876;28;20460;-86
2023/06/16 04:26:33;;;;;;;8.40;6.60;;;18.70;26.20;;;;;;5060413;28;20429;-84
2023/06/16 04:29:03;;;;;;;9.93;6.23;;;18.70;26.30;;;;;;5054151;28;20482;-83
2023/06/16 04:31:30;;;;;;;9.27;6.73;;;18.90;26.70;;;;;;5057892;28;20192;-84
2023/06/16 04:33:57;;;;;;;11.23;7.13;;;18.90;26.50;;;;;;5053200;28;20435;-84
2023/06/16 04:36:25;;;;;;;7.63;6.03;;;19.00;26.50;;;;;;5049741;28;20513;-84
2023/06/16 04:38:51;;;;;;;7.97;5.73;;;19.10;26.60;;;;;;5061039;28;20467;-85
2023/06/16 04:41:16;;;;;;;15.73;6.13;;;19.10;26.60;;;;;;5059340;28;20444;-84
2023/06/16 04:43:42;;;;;;;11.63;6.60;;;19.20;26.80;;;;;;5055983;28;20496;-83
2023/06/16 04:46:08;;;;;;;8.20;6.10;;;19.30;26.70;;;;;;5068780;28;20186;-84
2023/06/16 04:48:33;;;;;;;8.47;6.23;;;19.30;26.70;;;;;;5063721;28;20196;-84
2023/06/16 04:51:01;;;;;;;12.80;6.70;;;19.30;26.70;;;;;;5062310;28;20449;-84
2023/06/16 04:53:27;;;;;;;8.43;6.40;;;19.40;26.80;;;;;;5057954;28;20199;-85
2023/06/16 04:55:53;;;;;;;8.23;6.30;;;19.50;26.80;;;;;;5049790;28;20434;-83
2023/06/16 04:58:18;;;;;;;9.80;6.20;;;19.60;26.80;;;;;;5058666;28;20496;-84
2023/06/16 05:00:44;;;;;;;7.60;5.70;;;19.70;26.90;;;;;;5065031;28;20331;-84
2023/06/16 05:03:10;;;;;;;9.70;5.80;;;19.70;26.70;;;;;;5059378;28;20269;-86
2023/06/16 05:05:36;;;;;;;10.07;6.47;;;19.80;26.90;;;;;;5052935;28;20198;-83
2023/06/16 05:08:02;;;;;;;7.87;6.13;;;19.90;26.90;;;;;;5056150;28;20221;-85
2023/06/16 05:10:27;;;;;;;17.13;6.63;;;19.90;27.10;;;;;;5063035;28;20514;-84
2023/06/16 05:12:53;;;;;;;11.40;6.57;;;20.00;27.10;;;;;;5051181;28;20190;-85
2023/06/16 05:15:18;;;;;;;8.27;6.50;;;20.10;27.40;;;;;;5044717;28;20191;-82
2023/06/16 05:17:44;;;;;;;8.97;6.60;;;20.20;27.30;;;;;;5051819;28;20189;-81
2023/06/16 05:20:10;;;;;;;7.80;5.63;;;20.30;27.40;;;;;;5065988;28;20204;-83
2023/06/16 05:22:36;;;;;;;10.20;6.37;;;20.40;27.60;;;;;;5057917;28;20249;-83
2023/06/16 05:25:01;;;;;;;9.83;6.60;;;20.50;27.60;;;;;;5055492;28;20477;-83
2023/06/16 05:27:27;;;;;;;8.63;7.30;;;20.50;27.50;;;;;;5051827;28;20183;-84
2023/06/16 05:29:54;;;;;;;11.50;7.83;;;20.60;27.50;;;;;;5052259;28;20655;-85
2023/06/16 05:32:21;;;;;;;8.53;6.40;;;20.70;27.80;;;;;;5053515;28;20232;-85
2023/06/16 05:34:47;;;;;;;10.83;6.50;;;20.80;27.60;;;;;;5053318;28;20473;-83
2023/06/16 05:37:16;;;;;;;12.10;6.80;;;20.90;28.00;;;;;;5055863;28;20446;-84
2023/06/16 05:39:46;;;;;;;10.90;7.13;;;21.00;28.00;;;;;;5053408;28;20517;-85
2023/06/16 05:42:14;;;;;;;12.50;7.43;;;21.10;28.70;;;;;;5057076;28;20458;-83
2023/06/16 05:44:40;;;;;;;8.17;6.43;;;21.20;29.20;;;;;;5048570;28;20464;-83
2023/06/16 05:47:06;;;;;;;11.67;6.40;;;21.30;29.50;;;;;;5040833;28;20494;-83
2023/06/16 05:49:35;;;;;;;9.67;6.03;;;21.50;28.70;;;;;;5045154;28;20465;-83
2023/06/16 05:52:02;;;;;;;11.30;5.93;;;21.60;28.30;;;;;;5044601;28;20258;-83
2023/06/16 05:54:28;;;;;;;8.33;5.73;;;21.70;28.40;;;;;;5046304;28;20463;-82
2023/06/16 05:56:56;;;;;;;11.50;5.43;;;21.90;28.40;;;;;;5045289;28;20929;-82
2023/06/16 05:59:21;;;;;;;8.57;5.40;;;22.00;28.80;;;;;;5046183;28;20448;-84
2023/06/16 06:01:49;;;;;;;9.00;5.87;;;22.20;28.10;;;;;;5044215;28;20967;-84
2023/06/16 06:04:19;;;;;;;13.10;6.30;;;22.30;27.70;;;;;;5040828;28;20213;-83
2023/06/16 06:06:44;;;;;;;9.70;5.63;;;22.50;27.80;;;;;;5042968;28;20417;-82
2023/06/16 06:09:10;;;;;;;11.30;5.63;;;22.80;28.30;;;;;;5043126;28;20456;-83
2023/06/16 06:11:36;;;;;;;11.43;5.63;;;23.20;28.50;;;;;;5041923;28;20182;-83
2023/06/16 06:14:01;;;;;;;11.13;6.17;;;23.80;29.50;;;;;;5038306;28;20237;-83
2023/06/16 06:16:27;;;;;;;10.13;5.90;;;25.20;33.90;;;;;;5044247;28;20289;-83
2023/06/16 06:18:53;;;;;;;7.93;5.33;;;28.10;40.40;;;;;;5039483;28;20245;-80
2023/06/16 06:21:19;;;;;;;9.33;5.17;;;31.50;45.30;;;;;;5041691;28;20186;-80
2023/06/16 06:23:44;;;;;;;13.07;5.17;;;34.30;45.10;;;;;;5041247;28;20190;-82
2023/06/16 06:26:10;;;;;;;8.27;4.73;;;36.80;41.60;;;;;;5036573;28;20194;-83
2023/06/16 06:28:36;;;;;;;6.00;4.90;;;39.00;35.90;;;;;;5034913;28;20226;-82
2023/06/16 06:31:01;;;;;;;6.93;4.63;;;40.80;26.50;;;;;;5042290;28;20202;-82
2023/06/16 06:33:27;;;;;;;8.60;4.67;;;42.30;19.80;;;;;;5047433;28;20198;-85
2023/06/16 06:35:53;;;;;;;16.87;5.33;;;43.80;14.10;;;;;;5041068;28;20179;-84
2023/06/16 06:38:18;;;;;;;11.27;5.07;;;45.20;9.00;;;;;;5043602;28;20457;-83
2023/06/16 06:40:44;;;;;;;6.37;4.60;;;46.30;4.20;;;;;;5046491;28;20171;-84
2023/06/16 06:43:10;;;;;;;11.93;4.97;;;47.20;1.00;;;;;;5045140;28;20188;-85
2023/06/16 06:45:36;;;;;;;7.03;4.13;;;48.10;1.00;;;;;;5046623;28;20318;-85
2023/06/16 06:48:01;;;;;;;6.90;4.33;;;48.80;1.00;;;;;;5043560;28;20474;-85
2023/06/16 06:50:27;;;;;;;5.37;4.10;;;49.20;1.00;;;;;;5048680;28;20584;-85
2023/06/16 06:52:52;;;;;;;7.53;4.27;;;49.50;1.00;;;;;;5050133;28;20207;-85
2023/06/16 06:55:18;;;;;;;4.63;3.80;;;49.90;1.00;;;;;;5042764;28;20200;-83
2023/06/16 06:57:44;;;;;;;5.13;4.33;;;50.30;1.00;;;;;;5045483;28;20190;-85
2023/06/16 07:00:10;;;;;;;4.53;4.13;;;51.10;1.00;;;;;;5045892;28;20660;-82
2023/06/16 07:02:36;;;;;;;5.30;4.00;;;51.90;1.00;;;;;;5061076;28;20523;-84
2023/06/16 07:05:02;;;;;;;6.10;3.70;;;52.70;1.00;;;;;;5050472;28;20274;-85
2023/06/16 07:07:28;;;;;;;10.13;4.15;;;53.70;1.00;;;;;;5050752;28;20229;-82
2023/06/16 07:09:53;;;;;;;4.18;3.88;;;54.60;1.00;;;;;;5039569;28;20257;-83
2023/06/16 07:12:19;;;;;;;6.63;3.92;;;55.30;1.00;;;;;;5045102;28;20272;-85
2023/06/16 07:14:47;;;;;;;6.82;3.53;;;55.90;1.00;;;;;;5049007;28;20185;-85
2023/06/16 07:17:13;;;;;;;4.45;3.35;;;56.20;1.00;;;;;;5055161;28;20185;-84
2023/06/16 07:19:38;;;;;;;4.28;3.70;;;56.20;1.00;;;;;;5046506;28;20259;-85
2023/06/16 07:22:05;;;;;;;4.10;3.38;;;56.40;1.00;;;;;;5045850;28;20185;-85
2023/06/16 07:24:31;;;;;;;4.88;3.10;;;56.80;1.00;;;;;;5047300;28;20508;-83
2023/06/16 07:26:56;;;;;;;3.63;2.80;;;57.00;1.00;;;;;;5034780;28;20575;-84
2023/06/16 07:29:22;;;;;;;4.78;3.50;;;56.50;1.00;;;;;;5040427;28;20201;-83
2023/06/16 07:31:47;;;;;;;3.28;2.97;;;56.10;1.00;;;;;;5042384;28;20202;-83
2023/06/16 07:34:13;;;;;;;7.55;3.28;;;56.30;1.00;;;;;;5039430;28;20248;-83
2023/06/16 07:36:38;;;;;;;3.97;3.20;;;56.70;1.00;;;;;;5045474;28;20177;-84
2023/06/16 07:39:04;;;;;;;3.15;2.85;;;57.10;1.00;;;;;;5043469;28;20210;-84
2023/06/16 07:41:32;;;;;;;4.28;2.90;;;57.20;1.00;;;;;;5037423;28;20237;-83
2023/06/16 07:43:57;;;;;;;3.28;2.83;;;57.30;1.00;;;;;;5035433;28;20260;-84
2023/06/16 07:46:23;;;;;;;3.55;3.17;;;57.50;1.00;;;;;;5041005;28;20208;-83
2023/06/16 07:48:48;;;;;;;3.70;3.00;;;57.10;1.00;;;;;;5041088;28;20206;-84
2023/06/16 07:51:15;;;;;;;3.00;2.80;;;57.10;1.00;;;;;;5046311;28;20188;-83
2023/06/16 07:53:42;;;;;;;4.35;2.80;;;57.10;1.00;;;;;;5041407;28;20204;-83
2023/06/16 07:56:08;;;;;;;5.03;3.25;;;57.30;1.00;;;;;;5048248;28;20216;-84
2023/06/16 07:58:37;;;;;;;2.92;2.72;;;57.30;1.00;;;;;;5045717;28;20198;-83
2023/06/16 08:01:04;;;;;;;5.40;3.40;;;57.20;1.00;;;;;;5041960;28;20173;-82
2023/06/16 08:03:30;;;;;;;3.50;3.20;;;56.50;1.00;;;;;;5045383;28;20184;-83
2023/06/16 08:05:57;;;;;;;3.25;3.05;;;56.50;1.00;;;;;;5041746;28;20177;-83
2023/06/16 08:08:23;;;;;;;4.80;2.90;;;56.70;1.00;;;;;;5038269;28;20202;-82
2023/06/16 08:10:49;;;;;;;4.10;3.10;;;56.20;1.00;;;;;;5039185;28;20170;-82
2023/06/16 08:13:14;;;;;;;2.83;2.55;;;56.30;1.00;;;;;;5035809;28;20725;-82
2023/06/16 08:15:40;;;;;;;6.50;3.00;;;56.50;1.00;;;;;;5041459;28;20296;-83
2023/06/16 08:18:06;;;;;;;2.97;2.78;;;56.80;1.00;;;;;;5036841;28;20185;-83
2023/06/16 08:20:33;;;;;;;3.08;2.75;;;57.20;1.00;;;;;;5047081;28;22045;-82
2023/06/16 08:22:58;;;;;;;3.88;2.60;;;57.20;1.00;;;;;;5046645;28;20176;-82
2023/06/16 08:25:24;;;;;;;5.10;2.80;;;57.10;1.00;;;;;;5027331;28;20268;-81
2023/06/16 08:27:49;;;;;;;3.10;2.80;;;57.10;1.00;;;;;;5039060;28;20186;-81
2023/06/16 08:30:17;;;;;;;5.13;2.50;;;57.20;1.00;;;;;;5039916;28;20595;-82
2023/06/16 08:32:43;;;;;;;2.95;2.65;;;57.20;1.00;;;;;;5047600;28;20204;-80
2023/06/16 08:35:10;;;;;;;5.88;2.55;;;57.20;1.00;;;;;;5038154;28;20197;-82
2023/06/16 08:37:36;;;;;;;4.60;3.15;;;56.90;1.00;;;;;;5039297;28;20173;-82
2023/06/16 08:40:04;;;;;;;3.67;3.05;;;56.40;1.00;;;;;;5033182;28;20665;-83
2023/06/16 08:42:30;;;;;;;3.45;3.10;;;56.00;1.00;;;;;;5029611;28;20234;-82
2023/06/16 08:44:57;;;;;;;4.22;3.40;;;55.50;1.00;;;;;;5046548;28;20184;-83
2023/06/16 08:47:25;;;;;;;4.28;3.35;;;55.30;1.00;;;;;;5041251;28;20189;-81
2023/06/16 08:49:52;;;;;;;4.90;3.07;;;54.50;1.00;;;;;;5039648;28;20288;-85
2023/06/16 08:52:20;;;;;;;3.10;2.90;;;54.30;1.00;;;;;;5039811;28;20220;-81
2023/06/16 08:54:48;;;;;;;2.97;2.60;;;54.40;1.00;;;;;;5048514;28;20636;-82
2023/06/16 08:57:14;;;;;;;2.70;2.50;;;54.60;1.00;;;;;;5033623;28;20186;-82
2023/06/16 08:59:45;;;;;;;3.30;3.00;;;54.40;1.00;;;;;;5036757;28;20198;-83
2023/06/16 09:02:11;;;;;;;4.07;2.63;;;54.60;1.00;;;;;;5041207;28;20190;-84
2023/06/16 09:04:38;;;;;;;3.05;2.70;;;54.80;1.00;;;;;;5041792;28;20178;-85
2023/06/16 09:07:04;;;;;;;3.67;2.70;;;55.00;1.00;;;;;;5037003;28;20187;-82
2023/06/16 09:09:30;;;;;;;7.67;2.80;;;55.10;1.00;;;;;;5037335;28;20213;-84
2023/06/16 09:12:13;;;;;;;4.17;2.77;;;54.90;1.00;;;;;;5037579;28;20783;-83
2023/06/16 09:14:39;;;;;;;3.77;2.90;;;54.50;1.00;;;;;;5030896;28;20206;-83
2023/06/16 09:17:07;;;;;;;3.20;2.80;;;54.20;1.00;;;;;;5034227;28;20624;-82
2023/06/16 09:19:34;;;;;;;5.20;2.70;;;54.10;1.00;;;;;;5037092;28;20197;-82
2023/06/16 09:22:01;;;;;;;5.77;3.03;;;53.60;1.00;;;;;;5039296;28;20187;-84
2023/06/16 09:24:27;;;;;;;4.20;2.73;;;53.40;1.00;;;;;;5036420;28;20186;-82
2023/06/16 09:26:57;;;;;;;3.20;2.90;;;53.40;1.00;;;;;;5037002;28;21399;-82
2023/06/16 09:29:25;;;;;;;4.63;2.70;;;53.90;1.00;;;;;;5038898;28;20208;-83
2023/06/16 09:31:51;;;;;;;3.00;2.53;;;54.20;1.00;;;;;;5040403;28;20282;-82
2023/06/16 09:34:17;;;;;;;4.30;2.90;;;54.30;1.00;;;;;;5047399;28;20258;-82
2023/06/16 09:36:43;;;;;;;3.73;2.60;;;54.20;1.00;;;;;;5037865;28;20178;-82
2023/06/16 09:39:25;;;;;;;2.60;2.40;;;54.10;1.00;;;;;;5039829;28;20227;-82
2023/06/16 09:41:52;;;;;;;2.70;2.50;;;54.00;1.00;;;;;;5039823;28;20179;-82
2023/06/16 09:44:18;;;;;;;3.80;3.40;;;53.70;1.00;;;;;;5037926;28;20541;-81
2023/06/16 09:46:47;;;;;;;3.10;2.90;;;53.40;1.00;;;;;;5052568;28;20868;-82
2023/06/16 09:49:25;;;;;;;5.63;3.53;;;53.30;1.00;;;;;;5035611;28;20248;-83
2023/06/16 09:51:55;;;;;;;3.10;2.80;;;52.80;1.00;;;;;;5044562;28;20177;-83
2023/06/16 09:54:21;;;;;;;3.03;2.73;;;52.50;1.00;;;;;;5043070;28;20489;-81
2023/06/16 09:56:48;;;;;;;3.20;2.40;;;52.20;1.00;;;;;;5039164;28;20428;-82
2023/06/16 09:59:13;;;;;;;3.00;2.70;;;52.20;1.00;;;;;;5035055;28;20463;-83
2023/06/16 10:01:43;;;;;;;4.00;2.93;;;52.20;1.00;;;;;;5051833;28;20429;-82
2023/06/16 10:04:10;;;;;;;3.07;2.70;;;50.90;1.00;;;;;;5047413;28;20205;-82
2023/06/16 10:06:43;;;;;;;3.50;2.80;;;50.00;1.00;;;;;;5032341;28;20463;-83
2023/06/16 10:09:10;;;;;;;4.73;2.80;;;49.60;1.00;;;;;;5043800;28;20484;-82
2023/06/16 10:11:37;;;;;;;2.67;2.47;;;49.10;1.00;;;;;;5044363;28;20432;-82
2023/06/16 10:14:07;;;;;;;4.43;3.17;;;48.90;1.00;;;;;;5053935;28;20435;-83
2023/06/16 10:16:35;;;;;;;7.50;2.47;;;48.50;1.00;;;;;;5041353;28;20432;-82
2023/06/16 10:19:05;;;;;;;2.97;2.67;;;48.40;1.00;;;;;;5048531;28;20463;-84
2023/06/16 10:21:31;;;;;;;3.20;2.90;;;48.00;1.00;;;;;;5039331;28;20429;-83
2023/06/16 10:23:57;;;;;;;4.60;2.90;;;47.90;1.00;;;;;;5035009;28;20582;-84
2023/06/16 10:26:23;;;;;;;3.53;2.73;;;48.10;1.00;;;;;;5043663;28;20192;-85
2023/06/16 10:28:49;;;;;;;3.00;2.80;;;48.60;1.00;;;;;;5047352;28;20211;-82
2023/06/16 10:31:19;;;;;;;2.97;2.73;;;48.80;1.00;;;;;;5049012;28;20201;-83
2023/06/16 10:33:55;;;;;;;3.53;2.87;;;48.70;1.00;;;;;;5040034;28;20430;-84
2023/06/16 10:36:23;;;;;;;4.03;3.00;;;48.70;1.00;;;;;;5037450;28;20863;-84
2023/06/16 10:39:08;;;;;;;3.47;2.63;;;48.90;1.00;;;;;;5034577;28;20490;-85
2023/06/16 10:41:33;;;;;;;4.53;3.00;;;48.90;1.00;;;;;;5042180;28;20447;-85
2023/06/16 10:44:21;;;;;;;2.83;2.63;;;48.80;1.00;;;;;;5048259;28;20435;-83
2023/06/16 10:47:10;;;;;;;6.53;3.43;;;48.90;1.00;;;;;;5038798;28;20185;-84
2023/06/16 10:49:52;;;;;;;4.93;3.00;;;49.00;1.00;;;;;;5039880;28;20456;-84
2023/06/16 10:52:30;;;;;;;5.27;3.00;;;48.70;1.00;;;;;;5037668;28;20432;-84
2023/06/16 10:55:15;;;;;;;4.30;3.37;;;48.10;1.00;;;;;;5042461;28;20463;-84
2023/06/16 10:57:42;;;;;;;6.00;3.67;;;47.20;1.00;;;;;;5041946;28;20437;-85
2023/06/16 11:00:12;;;;;;;4.00;3.30;;;46.80;1.00;;;;;;5037657;28;20550;-84
2023/06/16 11:02:53;;;;;;;3.13;2.83;;;46.50;1.00;;;;;;5035951;28;21062;-85
2023/06/16 11:05:22;;;;;;;6.53;3.60;;;46.50;1.00;;;;;;5039662;28;20543;-84
2023/06/16 11:07:58;;;;;;;4.67;3.30;;;46.50;1.00;;;;;;5034515;28;20482;-83
2023/06/16 11:10:24;;;;;;;5.70;3.53;;;46.70;1.00;;;;;;5040051;28;20778;-85
2023/06/16 11:12:50;;;;;;;5.27;2.97;;;46.80;1.00;;;;;;5042644;28;20519;-84
2023/06/16 11:15:16;;;;;;;6.13;3.20;;;46.90;1.00;;;;;;5038086;28;20512;-84
2023/06/16 11:17:47;;;;;;;3.87;3.00;;;47.20;1.00;;;;;;5038026;28;20248;-84
2023/06/16 11:20:13;;;;;;;4.73;3.63;;;47.30;1.00;;;;;;5046844;28;20451;-85
2023/06/16 11:22:40;;;;;;;4.30;3.93;;;47.40;1.00;;;;;;5033377;28;20436;-84
2023/06/16 11:25:07;;;;;;;3.73;3.10;;;47.50;1.00;;;;;;5042385;28;20444;-84
2023/06/16 11:27:33;;;;;;;6.60;3.57;;;47.40;1.00;;;;;;5044429;28;20440;-84
2023/06/16 11:30:01;;;;;;;9.40;3.53;;;47.30;1.00;;;;;;5042425;28;20455;-85
2023/06/16 11:32:32;;;;;;;3.40;3.10;;;47.30;1.00;;;;;;5043581;28;20190;-84
2023/06/16 11:34:58;;;;;;;6.60;3.63;;;47.40;1.00;;;;;;5042922;28;20507;-84
2023/06/16 11:37:52;;;;;;;4.27;3.60;;;47.50;1.00;;;;;;5039346;28;20439;-83
2023/06/16 11:40:23;;;;;;;6.30;2.90;;;47.50;1.00;;;;;;5037531;28;20193;-84
2023/06/16 11:42:54;;;;;;;5.60;3.73;;;47.10;1.00;;;;;;5045789;28;20454;-85
2023/06/16 11:45:19;;;;;;;3.70;3.33;;;46.80;1.00;;;;;;5032465;28;20499;-85
2023/06/16 11:47:45;;;;;;;4.67;3.67;;;46.70;1.00;;;;;;5042229;28;20448;-84
2023/06/16 11:50:11;;;;;;;4.17;3.10;;;46.70;1.00;;;;;;5041165;28;20210;-84
2023/06/16 11:52:36;;;;;;;4.03;3.67;;;46.70;1.00;;;;;;5045308;28;20186;-84
2023/06/16 11:55:02;;;;;;;4.17;3.70;;;46.60;1.00;;;;;;5043173;28;20825;-84
2023/06/16 11:57:30;;;;;;;5.03;3.90;;;46.00;1.00;;;;;;5037715;28;20177;-87
2023/06/16 11:59:55;;;;;;;7.10;4.80;;;45.30;1.00;;;;;;5037395;28;20202;-84
2023/06/16 12:02:21;;;;;;;4.30;3.90;;;44.50;1.00;;;;;;5042529;28;20441;-83
2023/06/16 12:04:48;;;;;;;7.67;4.00;;;44.40;1.00;;;;;;5032646;28;20201;-85
2023/06/16 12:07:15;;;;;;;5.83;4.97;;;44.40;1.00;;;;;;5044003;28;20251;-84
2023/06/16 12:09:40;;;;;;;4.93;4.40;;;44.40;1.00;;;;;;5044393;28;20464;-85
2023/06/16 12:12:07;;;;;;;7.10;4.07;;;44.40;1.00;;;;;;5036739;28;20571;-84
2023/06/16 12:14:37;;;;;;;6.60;4.30;;;44.20;1.00;;;;;;5031903;28;20205;-84
2023/06/16 12:17:03;;;;;;;4.90;3.70;;;43.90;1.00;;;;;;5045949;28;21017;-84
2023/06/16 12:19:29;;;;;;;6.97;4.80;;;43.70;1.00;;;;;;5039638;28;20535;-85
2023/06/16 12:22:01;;;;;;;6.30;4.53;;;43.70;1.00;;;;;;5041329;28;20966;-84
2023/06/16 12:24:28;;;;;;;9.73;4.23;;;43.40;1.00;;;;;;5036779;28;20186;-84
2023/06/16 12:26:54;;;;;;;8.80;4.83;;;43.20;1.00;;;;;;5037102;28;20488;-85
2023/06/16 12:29:20;;;;;;;5.17;4.60;;;42.80;1.00;;;;;;5040401;28;20481;-86
2023/06/16 12:31:54;;;;;;;8.63;4.63;;;42.60;1.00;;;;;;5039726;28;20767;-83
2023/06/16 12:34:35;;;;;;;4.90;4.10;;;42.50;1.00;;;;;;5037812;28;20498;-84
2023/06/16 12:37:13;;;;;;;4.50;4.03;;;42.40;1.00;;;;;;5041697;28;20528;-84
2023/06/16 12:39:40;;;;;;;6.77;3.60;;;42.30;1.00;;;;;;5038793;28;20448;-84
2023/06/16 12:42:07;;;;;;;6.70;3.87;;;42.20;1.00;;;;;;5032178;28;20897;-84
2023/06/16 12:44:44;;;;;;;7.40;4.20;;;42.00;1.00;;;;;;5043757;28;20667;-84
2023/06/16 12:47:11;;;;;;;7.73;4.30;;;41.90;1.00;;;;;;5037352;28;20444;-84
2023/06/16 12:49:37;;;;;;;5.60;4.57;;;41.70;1.00;;;;;;5041018;28;20449;-85
2023/06/16 12:52:03;;;;;;;7.00;4.70;;;41.30;1.00;;;;;;5039697;28;20463;-84
2023/06/16 12:54:28;;;;;;;4.40;4.00;;;40.90;1.00;;;;;;5040989;28;20292;-83